Time;durP1;ratioP1;P1;durP2;ratioP2;P2;SDS_P1;SDS_P2;PMS_P1;PMS_P2;Temp;Humidity;BMP_temperature;BMP_pressure;BME280_temperature;BME280_humidity;BME280_pressure;Samples;Min_cycle;Max_cycle;Signal;HPM_P1;HPM_P2
2022/02/01 00:03:11;;;;;;;8.63;2.08;;;;;;;9.05;50.69;101572.59;5011862;28;20124;-76
2022/02/01 00:05:49;;;;;;;6.32;2.30;;;;;;;9.01;51.01;101573.69;5009437;28;20085;-76
2022/02/01 00:10:53;;;;;;;8.43;2.60;;;;;;;8.98;50.94;101552.16;5009889;28;20053;-76
2022/02/01 00:13:34;;;;;;;9.77;2.33;;;;;;;8.97;51.00;101550.44;5010389;28;20081;-76
2022/02/01 00:37:34;;;;;;;6.13;1.75;;;;;;;8.84;50.89;101606.13;5008477;28;20239;-76
2022/02/01 00:40:06;;;;;;;6.25;1.80;;;;;;;8.83;50.85;101623.31;5013375;28;20515;-76
2022/02/01 00:42:33;;;;;;;8.85;1.90;;;;;;;8.81;50.85;101622.53;5018283;28;20552;-76
2022/02/01 00:44:59;;;;;;;6.43;1.70;;;;;;;8.82;50.92;101633.25;5010426;28;20343;-76
2022/02/01 00:47:26;;;;;;;5.15;1.67;;;;;;;8.81;50.77;101608.97;5012091;28;20054;-76
2022/02/01 00:49:52;;;;;;;12.23;1.95;;;;;;;8.78;50.91;101604.59;5009894;28;20116;-76
2022/02/01 00:52:19;;;;;;;6.20;1.60;;;;;;;8.76;51.11;101609.19;5009090;28;20096;-76
2022/02/01 00:54:45;;;;;;;7.80;1.98;;;;;;;8.75;50.89;101623.66;5018519;28;20413;-76
2022/02/01 00:57:13;;;;;;;6.85;1.63;;;;;;;8.75;51.00;101629.09;5020131;28;20552;-76
2022/02/01 00:59:40;;;;;;;4.68;1.52;;;;;;;8.74;50.78;101628.19;5009629;28;20049;-76
2022/02/01 01:02:08;;;;;;;9.63;2.25;;;;;;;8.74;50.94;101630.03;5009559;28;20058;-75
2022/02/01 01:04:35;;;;;;;8.35;2.10;;;;;;;8.73;51.05;101618.31;5009250;28;20057;-76
2022/02/01 01:07:02;;;;;;;7.38;1.60;;;;;;;8.73;51.24;101609.31;5010393;28;20053;-76
2022/02/01 01:09:31;;;;;;;9.50;2.03;;;;;;;8.71;51.14;101604.00;5009228;28;20044;-76
2022/02/01 01:11:58;;;;;;;5.18;1.60;;;;;;;8.71;50.95;101609.41;5008370;28;20132;-76
2022/02/01 01:53:18;;;;;;;6.03;1.38;;;;;;;8.72;51.59;101646.38;4989965;28;20112;-75
2022/02/01 01:55:52;;;;;;;4.70;1.52;;;;;;;8.73;51.39;101636.38;4987279;28;20141;-76
2022/02/01 01:58:25;;;;;;;6.07;1.35;;;;;;;8.73;51.65;101644.50;4990490;28;20056;-76
2022/02/01 02:03:43;;;;;;;6.60;1.33;;;;;;;8.73;51.46;101663.47;4985673;28;20053;-76
2022/02/01 02:06:11;;;;;;;6.95;1.33;;;;;;;8.74;51.46;101667.94;4985981;28;20078;-76
2022/02/01 02:08:40;;;;;;;7.82;1.40;;;;;;;8.75;51.52;101667.88;4978401;28;20457;-76
2022/02/01 02:11:11;;;;;;;4.95;1.33;;;;;;;8.75;51.37;101676.00;4988817;28;20081;-76
2022/02/01 02:16:34;;;;;;;5.45;1.58;;;;;;;8.75;51.42;101670.56;4984354;28;20121;-76
2022/02/01 02:19:00;;;;;;;4.75;1.30;;;;;;;8.76;51.29;101675.03;4989908;28;20399;-76
2022/02/01 02:21:27;;;;;;;8.38;1.60;;;;;;;8.76;51.22;101668.75;5007719;28;20054;-76
2022/02/01 02:23:54;;;;;;;4.82;1.52;;;;;;;8.76;51.30;101668.75;5008536;28;20136;-76
2022/02/01 02:26:20;;;;;;;6.35;1.55;;;;;;;8.76;51.36;101669.63;5010693;28;20153;-76
2022/02/01 02:28:48;;;;;;;5.90;1.70;;;;;;;8.76;51.25;101666.03;5008396;28;20081;-76
2022/02/01 02:31:16;;;;;;;7.95;1.60;;;;;;;8.77;51.43;101655.16;4999796;28;20060;-76
2022/02/01 02:33:42;;;;;;;4.65;1.25;;;;;;;8.77;51.29;101647.03;5006190;28;20120;-76
2022/02/01 02:36:15;;;;;;;4.53;1.23;;;;;;;8.78;51.51;101659.63;5007096;28;20054;-76
2022/02/01 02:46:36;;;;;;;4.78;1.42;;;;;;;8.76;51.74;101676.88;5007421;28;20046;-76
2022/02/01 02:49:05;;;;;;;6.38;1.35;;;;;;;8.81;51.76;101679.38;5008309;28;20307;-77
2022/02/01 02:51:32;;;;;;;7.18;1.65;;;;;;;8.80;51.37;101672.22;5008592;28;20077;-76
2022/02/01 02:54:07;;;;;;;7.32;1.52;;;;;;;8.81;51.60;101677.56;5007585;28;20049;-76
2022/02/01 02:56:33;;;;;;;5.93;1.30;;;;;;;8.80;51.79;101681.22;5006648;28;20123;-76
2022/02/01 02:59:00;;;;;;;4.32;1.42;;;;;;;8.80;51.69;101670.38;5007541;28;20129;-76
2022/02/01 03:01:27;;;;;;;5.40;1.40;;;;;;;8.80;51.76;101675.78;5007714;28;20168;-76
2022/02/01 03:03:55;;;;;;;5.15;1.50;;;;;;;8.82;51.40;101678.41;5008202;28;20058;-76
2022/02/01 03:06:21;;;;;;;6.68;1.52;;;;;;;8.82;51.58;101681.13;5003124;28;20054;-76
2022/02/01 03:08:48;;;;;;;5.85;1.50;;;;;;;8.81;51.69;101679.38;4998079;28;20054;-76
2022/02/01 03:11:16;;;;;;;8.95;1.90;;;;;;;8.83;51.77;101677.47;5000619;28;20073;-76
2022/02/01 03:13:50;;;;;;;7.43;1.75;;;;;;;8.83;51.81;101669.34;5008297;28;20054;-76
2022/02/01 03:21:35;;;;;;;6.45;1.95;;;;;;;8.81;51.72;101649.59;5007586;28;20480;-76
2022/02/01 03:24:02;;;;;;;7.47;1.30;;;;;;;8.82;51.70;101656.75;5008229;28;20182;-76
2022/02/01 03:26:31;;;;;;;6.50;1.23;;;;;;;8.81;51.70;101669.44;5004755;28;20054;-76
2022/02/01 03:28:58;;;;;;;6.72;1.65;;;;;;;8.80;51.75;101656.84;5007161;28;20078;-77
2022/02/01 03:31:24;;;;;;;5.88;1.27;;;;;;;8.81;52.13;101641.47;5007938;28;20145;-76
2022/02/01 03:33:51;;;;;;;5.10;1.30;;;;;;;8.80;51.55;101627.06;5007672;28;20416;-76
2022/02/01 03:36:17;;;;;;;5.90;1.40;;;;;;;8.82;51.65;101635.97;5006860;28;20054;-76
2022/02/01 03:38:46;;;;;;;3.17;1.15;;;;;;;8.83;51.73;101636.84;5007427;28;20105;-76
2022/02/01 03:41:13;;;;;;;6.10;1.40;;;;;;;8.84;51.72;101641.31;5007369;28;20042;-76
2022/02/01 03:43:39;;;;;;;6.43;1.23;;;;;;;8.85;51.60;101643.06;5008872;28;20382;-76
2022/02/01 03:46:07;;;;;;;6.03;1.60;;;;;;;8.84;51.45;101641.31;5003124;28;20060;-77
2022/02/01 03:48:34;;;;;;;5.15;1.20;;;;;;;8.85;51.80;101640.38;5010206;28;20049;-76
2022/02/01 03:51:01;;;;;;;3.53;1.30;;;;;;;8.86;51.34;101639.41;5011105;28;20037;-76
2022/02/01 03:53:27;;;;;;;6.35;1.58;;;;;;;8.85;51.39;101640.38;5011450;28;20129;-76
2022/02/01 03:55:54;;;;;;;8.32;1.75;;;;;;;8.85;51.33;101635.84;5008821;28;20049;-76
2022/02/01 03:58:20;;;;;;;7.03;1.88;;;;;;;8.85;51.19;101630.41;5018929;28;20045;-76
2022/02/01 04:00:47;;;;;;;5.30;1.45;;;;;;;8.85;51.13;101624.13;5010767;28;20449;-76
2022/02/01 04:03:14;;;;;;;6.70;1.20;;;;;;;8.84;51.07;101633.19;5011562;28;20329;-77
2022/02/01 04:05:41;;;;;;;4.47;1.55;;;;;;;8.82;51.29;101629.66;5012882;28;20045;-76
2022/02/01 04:08:08;;;;;;;4.45;1.30;;;;;;;8.82;51.25;101629.66;5011905;28;20081;-76
2022/02/01 04:10:34;;;;;;;4.50;1.50;;;;;;;8.80;51.17;101629.75;5008816;28;21717;-76
2022/02/01 04:13:03;;;;;;;7.32;1.65;;;;;;;8.80;50.87;101632.47;5011217;28;20050;-76
2022/02/01 04:15:30;;;;;;;4.63;1.55;;;;;;;8.78;51.20;101627.13;5007909;28;20133;-76
2022/02/01 04:17:57;;;;;;;7.15;1.67;;;;;;;8.78;51.32;101626.25;5011641;28;20058;-76
2022/02/01 04:20:25;;;;;;;6.60;1.70;;;;;;;8.75;51.07;101624.53;5004260;28;20057;-76
2022/02/01 04:22:53;;;;;;;7.38;1.60;;;;;;;8.75;51.22;101619.13;5011140;28;20046;-76
2022/02/01 04:25:19;;;;;;;5.90;1.70;;;;;;;8.75;51.37;101615.53;5009033;28;20057;-76
2022/02/01 04:27:46;;;;;;;5.18;1.80;;;;;;;8.74;51.68;101606.53;5010233;28;20053;-76
2022/02/01 04:30:15;;;;;;;8.40;1.65;;;;;;;8.76;51.28;101612.78;5004127;28;20120;-76
2022/02/01 04:32:45;;;;;;;7.00;2.10;;;;;;;8.76;51.29;101614.59;5009902;28;20077;-76
2022/02/01 04:35:16;;;;;;;6.22;1.90;;;;;;;8.75;51.36;101616.44;5008320;28;20064;-76
2022/02/01 04:37:43;;;;;;;7.93;1.83;;;;;;;8.73;51.24;101593.94;5013983;28;20054;-75
2022/02/01 04:40:15;;;;;;;9.32;2.42;;;;;;;8.76;51.23;101590.22;5013318;28;20058;-76
2022/02/01 04:42:43;;;;;;;5.07;1.92;;;;;;;8.72;51.25;101599.47;5013989;28;20082;-76
2022/02/01 04:45:16;;;;;;;5.68;2.40;;;;;;;8.74;51.14;101598.41;5012919;28;20045;-76
2022/02/01 04:47:45;;;;;;;;;;;;;;;8.55;51.46;101593.97;5013961;28;20073;-76
2022/02/01 04:50:15;;;;;;;5.53;1.67;;;;;;;8.70;51.10;101587.81;5016521;28;20296;-76
2022/02/01 04:52:44;;;;;;;5.78;1.88;;;;;;;8.70;51.16;101577.00;5010851;28;20132;-76
2022/02/01 04:55:12;;;;;;;6.38;2.20;;;;;;;8.71;51.07;101576.94;5008659;28;20074;-76
2022/02/01 04:57:48;;;;;;;6.03;2.13;;;;;;;8.68;51.21;101582.47;5013426;28;20077;-76
2022/02/01 05:00:15;;;;;;;7.35;1.60;;;;;;;8.69;51.17;101588.78;5010982;28;20112;-76
2022/02/01 05:02:42;;;;;;;5.53;2.20;;;;;;;8.69;50.97;101592.34;5013049;28;20049;-76
2022/02/01 05:05:08;;;;;;;7.40;2.03;;;;;;;8.68;51.08;101600.53;5002354;28;20129;-76
2022/02/01 05:07:35;;;;;;;4.85;1.40;;;;;;;8.67;51.17;101596.09;5012734;28;20149;-76
2022/02/01 05:10:02;;;;;;;7.07;1.40;;;;;;;8.66;51.02;101594.31;5011448;28;20450;-76
2022/02/01 05:12:36;;;;;;;5.07;1.50;;;;;;;8.66;51.11;101602.44;5010936;28;20107;-76
2022/02/01 05:15:07;;;;;;;8.82;1.83;;;;;;;8.63;51.48;101613.44;5009201;28;20049;-77
2022/02/01 05:17:38;;;;;;;7.75;1.40;;;;;;;8.63;51.27;101614.31;5043196;28;20132;-77
2022/02/01 05:20:24;;;;;;;7.53;1.58;;;;;;;8.63;51.36;101605.31;5009703;28;20108;-77
2022/02/01 05:22:52;;;;;;;5.03;1.40;;;;;;;8.60;51.16;101609.03;5018292;28;20428;-76
2022/02/01 05:25:26;;;;;;;7.20;1.75;;;;;;;8.61;51.24;101602.66;5026784;28;20058;-76
2022/02/01 05:27:56;;;;;;;4.43;1.50;;;;;;;8.60;51.13;101594.63;5014445;28;20412;-76
2022/02/01 05:30:23;;;;;;;5.95;1.83;;;;;;;8.61;51.47;101605.38;5018928;28;20536;-77
2022/02/01 05:32:50;;;;;;;3.45;1.40;;;;;;;8.59;51.18;101606.38;5015849;28;20076;-76
2022/02/01 05:35:17;;;;;;;9.88;1.90;;;;;;;8.57;51.19;101583.91;5022602;28;20072;-76
2022/02/01 05:37:44;;;;;;;7.85;1.70;;;;;;;8.56;51.13;101590.31;5012665;28;20053;-77
2022/02/01 05:40:11;;;;;;;5.20;1.58;;;;;;;8.56;51.18;101596.59;5023828;28;20088;-76
2022/02/01 05:42:56;;;;;;;4.70;1.60;;;;;;;8.55;51.43;101588.56;5010116;28;20042;-77
2022/02/01 05:45:23;;;;;;;4.43;1.55;;;;;;;8.54;51.60;101570.56;5020773;28;20052;-77
2022/02/01 05:47:53;;;;;;;7.00;1.85;;;;;;;8.55;51.53;101558.78;5029793;28;20046;-76
2022/02/01 05:50:20;;;;;;;4.40;1.50;;;;;;;8.57;51.33;101546.03;5018679;28;20378;-77
2022/02/01 05:52:48;;;;;;;5.95;1.60;;;;;;;8.57;51.14;101541.50;5018935;28;20107;-77
2022/02/01 05:55:15;;;;;;;7.07;1.75;;;;;;;8.57;51.33;101530.66;4996511;28;20412;-77
2022/02/01 05:57:43;;;;;;;7.90;1.60;;;;;;;8.58;51.18;101527.03;5016968;28;20049;-77
2022/02/01 06:00:11;;;;;;;4.90;1.90;;;;;;;8.58;51.36;101535.13;5016290;28;20107;-77
2022/02/01 06:02:40;;;;;;;6.32;1.80;;;;;;;8.57;51.02;101527.97;5012950;28;20137;-77
2022/02/01 06:05:07;;;;;;;6.22;1.67;;;;;;;8.58;51.27;101526.13;5026949;28;20596;-77
2022/02/01 06:07:34;;;;;;;5.47;1.73;;;;;;;8.58;51.11;101524.31;5023604;28;20133;-76
2022/02/01 06:10:00;;;;;;;6.95;1.75;;;;;;;8.57;50.88;101509.03;5012332;28;20404;-76
2022/02/01 06:12:27;;;;;;;7.05;1.73;;;;;;;8.57;51.21;101519.84;5026172;28;20085;-77
2022/02/01 06:14:54;;;;;;;7.43;1.80;;;;;;;8.59;51.26;101517.06;5024920;28;20641;-78
2022/02/01 06:17:20;;;;;;;7.22;1.80;;;;;;;8.59;51.16;101495.41;5024047;28;20076;-77
2022/02/01 06:19:47;;;;;;;4.93;1.77;;;;;;;8.57;51.36;101514.44;5023711;28;20164;-77
2022/02/01 06:22:14;;;;;;;5.60;1.83;;;;;;;8.60;51.33;101506.19;5011555;28;20076;-77
2022/02/01 06:24:40;;;;;;;5.55;1.80;;;;;;;8.61;51.33;101509.75;5009654;28;20069;-77
2022/02/01 06:27:07;;;;;;;3.60;1.58;;;;;;;8.60;51.14;101508.88;5010652;28;20060;-77
2022/02/01 06:29:35;;;;;;;4.03;1.70;;;;;;;8.61;51.00;101507.06;5014205;28;20395;-77
2022/02/01 06:32:03;;;;;;;5.10;2.00;;;;;;;8.59;51.13;101522.47;5007286;28;20046;-78
2022/02/01 06:34:29;;;;;;;7.07;1.63;;;;;;;8.57;51.25;101517.13;5005369;28;20075;-77
2022/02/01 06:36:56;;;;;;;6.00;1.95;;;;;;;8.59;51.46;101498.13;5000794;28;20042;-77
2022/02/01 06:39:23;;;;;;;6.63;1.65;;;;;;;8.60;51.06;101495.34;5005968;28;20481;-77
2022/02/01 06:41:49;;;;;;;5.15;1.83;;;;;;;8.60;51.18;101500.75;5008295;28;20481;-77
2022/02/01 06:44:16;;;;;;;6.93;1.63;;;;;;;8.60;50.94;101508.88;5005621;28;20284;-77
2022/02/01 06:46:43;;;;;;;6.80;1.83;;;;;;;8.60;51.16;101506.19;5006689;28;20042;-78
2022/02/01 06:49:11;;;;;;;6.72;1.88;;;;;;;8.61;51.29;101510.63;5003942;28;20168;-78
2022/02/01 06:51:38;;;;;;;4.13;1.40;;;;;;;8.61;51.04;101507.06;5007150;28;20085;-77
2022/02/01 06:54:06;;;;;;;4.57;1.50;;;;;;;8.62;51.22;101498.00;5005577;28;20497;-78
2022/02/01 06:56:36;;;;;;;7.18;1.85;;;;;;;8.61;51.03;101496.22;5004995;28;20144;-78
2022/02/01 06:59:04;;;;;;;7.72;2.03;;;;;;;8.62;51.30;101489.88;5005499;28;20433;-78
2022/02/01 07:01:32;;;;;;;7.90;2.05;;;;;;;8.61;51.26;101478.16;4986530;28;20561;-79
2022/02/01 07:04:00;;;;;;;5.22;1.85;;;;;;;8.64;51.36;101474.44;4987415;28;20058;-78
2022/02/01 07:06:30;;;;;;;6.65;1.90;;;;;;;8.63;51.36;101468.16;5006405;28;20112;-77
2022/02/01 07:08:58;;;;;;;5.40;1.77;;;;;;;8.65;51.43;101478.88;5007275;28;20081;-78
2022/02/01 07:11:25;;;;;;;7.63;2.17;;;;;;;8.66;51.29;101481.50;5006899;28;20057;-78
2022/02/01 07:13:51;;;;;;;5.75;1.80;;;;;;;8.67;51.47;101483.28;5007712;28;20054;-78
2022/02/01 07:16:19;;;;;;;4.90;1.58;;;;;;;8.68;51.40;101471.50;5004876;28;20139;-78
2022/02/01 07:18:51;;;;;;;5.00;2.00;;;;;;;8.69;51.24;101464.25;5006208;28;20543;-78
2022/02/01 07:21:18;;;;;;;7.72;2.17;;;;;;;8.69;51.51;101464.25;5004829;28;20501;-78
2022/02/01 07:23:45;;;;;;;4.65;1.90;;;;;;;8.71;51.30;101476.78;5009376;28;20081;-77
2022/02/01 07:26:11;;;;;;;5.10;1.70;;;;;;;8.72;51.40;101477.66;5007150;28;20046;-78
2022/02/01 07:28:39;;;;;;;5.72;1.88;;;;;;;8.72;51.45;101473.13;5011447;28;20046;-78
2022/02/01 07:31:08;;;;;;;6.35;2.00;;;;;;;8.72;51.37;101467.69;5009215;28;20327;-80
2022/02/01 07:33:36;;;;;;;7.47;2.33;;;;;;;8.75;51.14;101467.53;5011692;28;20108;-80
2022/02/01 07:36:02;;;;;;;5.05;1.90;;;;;;;8.74;51.27;101473.00;5009704;28;20078;-79
2022/02/01 07:38:30;;;;;;;7.40;2.03;;;;;;;8.74;51.24;101470.31;5024245;28;20061;-78
2022/02/01 07:40:58;;;;;;;4.97;2.00;;;;;;;8.77;51.19;101476.47;5021672;28;20061;-78
2022/02/01 07:43:31;;;;;;;5.85;2.15;;;;;;;8.79;51.28;101476.38;5011502;28;20145;-77
2022/02/01 07:46:06;;;;;;;5.68;2.30;;;;;;;8.78;51.24;101475.50;5008280;28;20065;-77
2022/02/01 07:48:33;;;;;;;9.65;3.08;;;;;;;8.74;51.22;101470.31;5009841;28;20042;-78
2022/02/01 07:50:59;;;;;;;6.95;2.08;;;;;;;8.76;51.08;101480.09;5010299;28;20531;-78
2022/02/01 07:53:26;;;;;;;8.13;2.13;;;;;;;8.75;51.19;101481.06;5008706;28;20089;-77
2022/02/01 07:55:53;;;;;;;7.32;2.58;;;;;;;8.75;51.56;101472.06;5008323;28;20129;-79
2022/02/01 07:58:19;;;;;;;8.35;2.33;;;;;;;8.75;51.63;101466.66;5011177;28;20053;-78
2022/02/01 08:00:46;;;;;;;4.75;2.10;;;;;;;8.74;51.39;101460.34;5009200;28;20054;-78
2022/02/01 08:03:13;;;;;;;7.85;2.88;;;;;;;8.76;51.51;101454.88;5011185;28;20096;-78
2022/02/01 08:05:39;;;;;;;6.07;2.30;;;;;;;8.75;51.65;101443.16;5007534;28;20050;-78
2022/02/01 08:08:07;;;;;;;9.30;2.55;;;;;;;8.76;51.51;101439.50;5009906;28;20347;-78
2022/02/01 08:10:45;;;;;;;8.65;2.65;;;;;;;8.78;51.73;101436.72;5008784;28;20137;-77
2022/02/01 08:21:18;;;;;;;9.38;3.42;;;;;;;8.78;51.80;101447.56;5003085;28;20112;-77
2022/02/01 08:23:45;;;;;;;7.22;2.78;;;;;;;8.80;52.08;101444.78;5012331;28;20378;-76
2022/02/01 08:26:12;;;;;;;6.38;3.22;;;;;;;8.82;51.82;101426.59;5007181;28;20084;-77
2022/02/01 08:28:39;;;;;;;8.57;3.67;;;;;;;8.83;51.90;101414.81;5010115;28;20060;-77
2022/02/01 08:31:07;;;;;;;10.30;3.92;;;;;;;8.84;51.82;101408.44;5008717;28;20551;-77
2022/02/01 08:33:36;;;;;;;9.90;3.85;;;;;;;8.84;52.11;101408.44;5007773;28;20053;-77
2022/02/01 08:36:07;;;;;;;10.85;4.28;;;;;;;8.86;52.02;101395.72;5007218;28;20056;-77
2022/02/01 08:38:34;;;;;;;9.48;4.30;;;;;;;8.86;52.33;101393.00;5008725;28;20096;-77
2022/02/01 08:41:01;;;;;;;10.55;4.00;;;;;;;8.84;52.04;101401.22;5007421;28;20049;-76
2022/02/01 08:43:28;;;;;;;9.23;4.38;;;;;;;8.85;52.46;101393.97;5009582;28;20096;-76
2022/02/01 08:45:55;;;;;;;9.35;4.07;;;;;;;8.85;52.54;101386.72;5005223;28;20508;-78
2022/02/01 08:48:21;;;;;;;11.68;4.28;;;;;;;8.84;52.55;101394.91;5004616;28;20132;-77
2022/02/01 08:50:49;;;;;;;9.43;4.13;;;;;;;8.87;52.71;101389.34;5008286;28;20058;-78
2022/02/01 08:53:24;;;;;;;8.43;4.28;;;;;;;8.86;52.87;101388.47;5010051;28;20053;-79
2022/02/01 08:58:23;;;;;;;7.80;3.90;;;;;;;8.85;52.74;101375.88;5012134;28;20285;-81
2022/02/01 09:00:51;;;;;;;9.73;3.92;;;;;;;8.84;52.97;101357.88;5002175;28;20096;-81
2022/02/01 09:03:18;;;;;;;10.27;4.07;;;;;;;8.85;53.07;101361.47;5014853;28;20045;-82
2022/02/01 09:05:48;;;;;;;9.57;4.03;;;;;;;8.87;53.16;101360.44;5009793;28;20414;-82
2022/02/01 09:08:16;;;;;;;9.00;3.65;;;;;;;8.88;53.35;101358.63;5005563;28;20057;-82
2022/02/01 09:10:42;;;;;;;8.90;3.85;;;;;;;8.89;53.16;101349.53;5010157;28;20528;-82
2022/02/01 09:13:09;;;;;;;8.50;3.88;;;;;;;8.92;53.29;101327.69;5019161;28;20045;-83
2022/02/01 09:15:35;;;;;;;8.73;4.07;;;;;;;8.92;53.36;101336.69;5008917;28;20108;-83
2022/02/01 09:18:02;;;;;;;9.05;4.47;;;;;;;8.95;53.29;101327.56;5007251;28;20057;-82
2022/02/01 09:20:30;;;;;;;9.60;4.53;;;;;;;8.96;53.27;101319.34;5008139;28;20132;-81
2022/02/01 09:22:57;;;;;;;9.73;4.60;;;;;;;8.97;53.22;101314.81;5010923;28;20437;-81
2022/02/01 09:25:26;;;;;;;8.70;4.43;;;;;;;9.00;53.29;101315.50;5007586;28;20132;-81
2022/02/01 09:27:52;;;;;;;8.98;4.60;;;;;;;9.01;53.34;101301.00;5011118;28;20129;-81
2022/02/01 09:30:22;;;;;;;10.05;5.05;;;;;;;9.04;53.34;101291.88;5007326;28;20466;-81
2022/02/01 09:32:49;;;;;;;8.90;4.65;;;;;;;9.01;53.56;101283.88;5014891;28;20077;-82
2022/02/01 09:35:16;;;;;;;9.35;5.22;;;;;;;9.03;53.28;101287.41;5008544;28;20077;-82
2022/02/01 09:37:43;;;;;;;8.38;4.57;;;;;;;9.01;53.47;101281.19;5010275;28;20473;-82
2022/02/01 09:40:30;;;;;;;8.18;4.85;;;;;;;9.00;53.49;101274.00;5008960;28;20045;-82
2022/02/01 09:42:56;;;;;;;8.75;5.38;;;;;;;9.04;53.38;101253.94;5009481;28;20050;-83
2022/02/01 09:45:24;;;;;;;9.25;4.70;;;;;;;9.03;53.73;101249.47;5007824;28;20053;-82
2022/02/01 09:48:04;;;;;;;10.18;4.90;;;;;;;9.03;53.68;101230.53;5008992;28;20054;-82
2022/02/01 09:50:31;;;;;;;7.57;4.50;;;;;;;9.04;53.68;101224.16;5007884;28;20045;-82
2022/02/01 09:52:57;;;;;;;7.68;4.80;;;;;;;9.04;53.84;101219.63;5008719;28;20791;-82
2022/02/01 09:55:24;;;;;;;7.82;4.80;;;;;;;9.04;53.99;101222.31;5007047;28;20042;-82
2022/02/01 09:57:56;;;;;;;8.85;4.15;;;;;;;9.08;54.33;101214.88;5011170;28;20092;-81
2022/02/01 10:00:33;;;;;;;6.93;4.03;;;;;;;9.08;54.13;101204.06;5008975;28;20057;-81
2022/02/01 10:03:04;;;;;;;6.75;3.97;;;;;;;9.07;54.28;101214.00;5009233;28;20133;-80
2022/02/01 10:05:32;;;;;;;7.65;4.25;;;;;;;9.09;54.01;101213.94;5008084;28;20086;-81
2022/02/01 10:07:59;;;;;;;9.27;4.90;;;;;;;9.10;54.18;101197.59;5010879;28;20584;-81
2022/02/01 10:10:30;;;;;;;6.93;3.83;;;;;;;9.12;54.19;101186.69;5008813;28;20528;-81
2022/02/01 10:13:07;;;;;;;7.10;4.78;;;;;;;9.14;54.21;101171.22;5010185;28;20049;-80
2022/02/01 10:15:34;;;;;;;7.22;4.32;;;;;;;9.13;54.06;101170.34;5003467;28;20494;-80
2022/02/01 10:18:03;;;;;;;6.75;3.40;;;;;;;9.16;54.18;101162.03;5008226;28;20080;-80
2022/02/01 10:20:37;;;;;;;7.22;3.88;;;;;;;9.22;54.62;101152.72;4994284;28;20049;-81
2022/02/01 10:23:25;;;;;;;7.68;3.33;;;;;;;9.22;54.60;101144.59;5013986;28;20046;-80
2022/02/01 10:25:59;;;;;;;6.10;3.83;;;;;;;9.27;54.34;101149.72;5015138;28;20080;-80
2022/02/01 10:28:31;;;;;;;5.57;3.53;;;;;;;9.24;54.37;101145.34;5009915;28;20077;-79
2022/02/01 10:31:04;;;;;;;5.20;3.30;;;;;;;9.25;54.48;101141.69;5008335;28;20092;-79
2022/02/01 10:36:17;;;;;;;5.20;2.85;;;;;;;9.25;54.38;101148.94;5005765;28;20089;-79
2022/02/01 10:38:45;;;;;;;5.80;2.97;;;;;;;9.28;54.27;101130.69;4997850;28;20062;-79
2022/02/01 10:41:14;;;;;;;3.75;2.78;;;;;;;9.30;54.62;101127.88;5005313;28;20049;-79
2022/02/01 10:43:41;;;;;;;6.20;3.10;;;;;;;9.28;54.58;101121.69;5006449;28;20077;-79
2022/02/01 10:46:15;;;;;;;5.72;3.13;;;;;;;9.34;55.17;101121.31;5005448;28;20081;-79
2022/02/01 10:48:50;;;;;;;5.20;3.10;;;;;;;9.36;54.55;101108.56;5007670;28;20054;-79
2022/02/01 10:51:23;;;;;;;5.10;3.22;;;;;;;9.36;54.90;101105.84;5008509;28;20050;-80
2022/02/01 10:53:56;;;;;;;5.57;2.90;;;;;;;9.36;54.92;101093.19;5008357;28;20082;-78
2022/02/01 10:56:24;;;;;;;4.05;2.75;;;;;;;9.38;54.89;101099.38;5007037;28;20045;-79
2022/02/01 10:58:52;;;;;;;4.47;2.60;;;;;;;9.38;55.04;101088.56;5012036;28;20489;-79
2022/02/01 11:01:20;;;;;;;5.32;2.95;;;;;;;9.40;55.07;101088.44;5010709;28;20050;-79
2022/02/01 11:03:49;;;;;;;4.85;2.40;;;;;;;9.41;54.94;101096.47;5013313;28;20061;-79
2022/02/01 11:06:16;;;;;;;3.38;2.50;;;;;;;9.40;55.06;101077.59;4979495;28;20062;-79
2022/02/01 11:08:46;;;;;;;3.95;2.70;;;;;;;9.44;55.23;101055.66;4991943;28;20054;-79
2022/02/01 11:11:21;;;;;;;5.20;2.92;;;;;;;9.47;55.35;101060.03;5010193;28;20054;-79
2022/02/01 11:13:50;;;;;;;5.32;2.80;;;;;;;9.47;55.37;101062.75;5012514;28;20054;-79
2022/02/01 11:16:23;;;;;;;4.80;2.60;;;;;;;9.50;55.61;101057.13;5009663;28;20445;-78
2022/02/01 11:18:59;;;;;;;4.43;2.78;;;;;;;9.51;55.63;101039.91;5012617;28;20049;-78
2022/02/01 11:21:27;;;;;;;4.28;2.50;;;;;;;9.51;55.46;101024.53;5011746;28;20038;-79
2022/02/01 11:23:58;;;;;;;4.10;2.70;;;;;;;9.54;55.38;101032.47;5011651;28;20054;-80
2022/02/01 11:26:36;;;;;;;5.28;2.83;;;;;;;9.61;55.79;101023.97;5009987;28;20054;-81
2022/02/01 11:31:55;;;;;;;4.30;2.60;;;;;;;9.58;55.64;101014.19;5032485;28;20065;-83
2022/02/01 11:34:30;;;;;;;3.53;2.45;;;;;;;9.62;56.29;101017.59;5029552;28;20045;-83
2022/02/01 11:36:59;;;;;;;4.38;2.53;;;;;;;9.64;55.85;101004.78;5013794;28;20469;-83
2022/02/01 11:39:30;;;;;;;4.72;2.70;;;;;;;9.66;56.00;100992.91;5012910;28;20045;-83
2022/02/01 11:42:11;;;;;;;4.40;2.50;;;;;;;9.69;56.05;100984.59;4944714;28;20043;-82
2022/02/01 11:44:39;;;;;;;4.60;2.63;;;;;;;9.70;55.93;100975.50;4955060;28;20047;-82
2022/02/01 11:47:20;;;;;;;3.95;2.33;;;;;;;9.73;56.34;100978.00;4956728;28;20047;-82
2022/02/01 11:49:51;;;;;;;3.63;2.28;;;;;;;9.76;56.34;100987.78;4954793;28;20704;-83
2022/02/01 11:52:19;;;;;;;3.78;2.20;;;;;;;9.76;56.09;100966.97;4940068;28;20051;-82
2022/02/01 11:54:47;;;;;;;3.15;2.10;;;;;;;9.80;55.94;100968.50;4948440;28;20077;-81
2022/02/01 11:57:17;;;;;;;3.60;2.40;;;;;;;9.85;56.15;100951.97;4967685;28;20055;-82
2022/02/01 11:59:51;;;;;;;3.05;2.20;;;;;;;9.87;56.41;100952.75;4948366;28;20054;-81
2022/02/01 12:02:24;;;;;;;3.10;2.15;;;;;;;9.87;56.37;100955.47;4962232;28;20054;-82
2022/02/01 12:05:10;;;;;;;2.47;1.75;;;;;;;9.90;56.21;100948.00;4966230;28;20054;-81
2022/02/01 12:07:47;;;;;;;3.17;2.08;;;;;;;9.92;56.56;100932.50;5003407;28;20050;-81
2022/02/01 12:10:16;;;;;;;3.58;2.28;;;;;;;9.91;56.68;100938.91;5008270;28;20136;-82
2022/02/01 12:12:46;;;;;;;3.25;2.00;;;;;;;9.91;56.53;100946.16;5012405;28;20054;-82
2022/02/01 12:15:13;;;;;;;3.15;1.88;;;;;;;9.95;56.52;100939.59;5011294;28;20289;-81
2022/02/01 12:18:00;;;;;;;4.82;2.17;;;;;;;9.99;57.12;100937.53;5011494;28;20567;-81
2022/02/01 12:20:30;;;;;;;2.88;2.00;;;;;;;9.99;56.83;100933.00;5017680;28;20076;-81
2022/02/01 12:23:02;;;;;;;2.85;1.67;;;;;;;10.03;57.00;100923.72;5014759;28;20497;-80
2022/02/01 12:25:29;;;;;;;3.55;2.10;;;;;;;10.03;56.51;100915.56;5009541;28;20128;-80
2022/02/01 12:27:56;;;;;;;3.20;1.70;;;;;;;10.09;56.88;100898.03;5010438;28;20402;-79
2022/02/01 12:30:23;;;;;;;3.10;1.65;;;;;;;10.09;56.96;100901.59;5003533;28;20062;-79
2022/02/01 12:32:56;;;;;;;3.00;1.70;;;;;;;10.14;56.69;100899.47;5010354;28;20104;-79
2022/02/01 12:35:33;;;;;;;2.45;1.60;;;;;;;10.15;56.85;100898.50;5014034;28;20555;-78
2022/02/01 12:38:12;;;;;;;2.90;1.60;;;;;;;10.16;56.96;100893.94;5019891;28;20057;-78
2022/02/01 12:40:39;;;;;;;3.05;1.83;;;;;;;10.17;56.94;100888.44;5008997;28;20065;-79
2022/02/01 12:43:17;;;;;;;3.55;1.63;;;;;;;10.21;56.75;100879.13;5008552;28;20061;-80
2022/02/01 12:48:13;;;;;;;2.80;1.70;;;;;;;10.24;56.83;100850.94;5005447;28;20056;-80
2022/02/01 12:50:40;;;;;;;2.95;1.60;;;;;;;10.27;56.74;100856.16;5012042;28;20141;-81
2022/02/01 12:53:09;;;;;;;2.15;1.45;;;;;;;10.29;57.05;100855.06;5009653;28;20056;-80
2022/02/01 12:55:36;;;;;;;1.95;1.52;;;;;;;10.30;57.07;100854.09;5012960;28;20046;-80
2022/02/01 12:58:17;;;;;;;2.60;1.60;;;;;;;10.35;57.31;100837.53;5009232;28;20038;-82
2022/02/01 13:00:50;;;;;;;2.13;1.20;;;;;;;10.38;57.07;100839.19;5003722;28;20133;-83
2022/02/01 13:03:18;;;;;;;2.63;1.60;;;;;;;10.40;57.03;100821.81;5008052;28;20089;-84
2022/02/01 13:05:45;;;;;;;2.78;1.50;;;;;;;10.42;57.06;100827.16;5009753;28;20052;-85
2022/02/01 13:21:32;;;;;;;2.13;1.48;;;;;;;10.50;56.98;100805.78;5009563;28;20285;-85
2022/02/01 13:23:59;;;;;;;1.88;1.35;;;;;;;10.55;57.11;100798.19;5009235;28;20045;-85
2022/02/01 13:26:32;;;;;;;1.70;1.30;;;;;;;10.60;57.26;100780.63;5007853;28;20050;-85
2022/02/01 13:29:13;;;;;;;2.00;1.20;;;;;;;10.60;57.17;100788.78;5018723;28;20129;-86
2022/02/01 13:31:47;;;;;;;2.35;1.58;;;;;;;10.60;57.52;100804.19;5004401;28;20092;-84
2022/02/01 13:34:14;;;;;;;2.08;1.40;;;;;;;10.61;56.98;100786.94;5009124;28;20486;-83
2022/02/01 13:36:48;;;;;;;2.97;1.27;;;;;;;10.65;57.33;100788.47;5009665;28;20449;-82